Farnsfield, United Kingdom
Current Conditions -  °F | °C
As of 3:50 PM on Tuesday 21 Oct 2014 (Local Time) from EGXW Reporting Station
Few Clouds Few Clouds  
Wind Chill: 50°   Ceiling: Unl
Heat Index: 50°   Visibility: 6mi
Dew Point: 39°   Wind: 17mph
Humidity: 66%   Direction: 290°WNW
Pressure: 29.65"   Gusts: 30mph
Location:  53.1°N, 1.03°W
Report Text: EGXW 211450Z 29015G26KT 9999 FEW035 10/04 Q1004 BLU NOSIG
Loading
Personal Weather Stations






























Interactive Weather Map
Tropical Storm Tracking
New forecast layout! Learn more

10-Day Weather Forecast

Advertisements
Track Severe Weather on mobile